sensor_id;sensor_type;location;lat;lon;timestamp;pressure;altitude;pressure_sealevel;temperature
73937;BMP180;59249;59.736;30.568;2024-02-28T00:01:54;101412.00;;;2.60
73937;BMP180;59249;59.736;30.568;2024-02-28T00:04:29;101413.00;;;2.60
73937;BMP180;59249;59.736;30.568;2024-02-28T00:07:05;101419.00;;;2.60
73937;BMP180;59249;59.736;30.568;2024-02-28T00:09:39;101410.00;;;2.70
73937;BMP180;59249;59.736;30.568;2024-02-28T00:12:12;101409.00;;;2.60
73937;BMP180;59249;59.736;30.568;2024-02-28T00:14:43;101410.00;;;2.70
73937;BMP180;59249;59.736;30.568;2024-02-28T00:17:15;101408.00;;;2.70
73937;BMP180;59249;59.736;30.568;2024-02-28T00:19:45;101410.00;;;2.60
73937;BMP180;59249;59.736;30.568;2024-02-28T00:22:22;101406.00;;;2.60
73937;BMP180;59249;59.736;30.568;2024-02-28T00:24:53;101409.00;;;2.50
73937;BMP180;59249;59.736;30.568;2024-02-28T00:27:31;101405.00;;;2.40
73937;BMP180;59249;59.736;30.568;2024-02-28T00:30:00;101397.00;;;2.40
73937;BMP180;59249;59.736;30.568;2024-02-28T00:32:37;101389.00;;;2.30
73937;BMP180;59249;59.736;30.568;2024-02-28T00:35:08;101401.00;;;2.40
73937;BMP180;59249;59.736;30.568;2024-02-28T00:37:47;101398.00;;;2.40
73937;BMP180;59249;59.736;30.568;2024-02-28T00:40:22;101384.00;;;2.30
73937;BMP180;59249;59.736;30.568;2024-02-28T00:43:03;101389.00;;;2.30
73937;BMP180;59249;59.736;30.568;2024-02-28T00:45:35;101398.00;;;2.30
73937;BMP180;59249;59.736;30.568;2024-02-28T00:48:13;101386.00;;;2.30
73937;BMP180;59249;59.736;30.568;2024-02-28T00:50:47;101391.00;;;2.40
73937;BMP180;59249;59.736;30.568;2024-02-28T00:53:24;101390.00;;;2.30
73937;BMP180;59249;59.736;30.568;2024-02-28T00:56:18;101394.00;;;2.40
73937;BMP180;59249;59.736;30.568;2024-02-28T00:58:53;101381.00;;;2.30
73937;BMP180;59249;59.736;30.568;2024-02-28T01:01:23;101381.00;;;2.30
73937;BMP180;59249;59.736;30.568;2024-02-28T01:04:00;101373.00;;;2.40
73937;BMP180;59249;59.736;30.568;2024-02-28T01:06:33;101372.00;;;2.30
73937;BMP180;59249;59.736;30.568;2024-02-28T01:09:05;101377.00;;;2.30
73937;BMP180;59249;59.736;30.568;2024-02-28T01:11:43;101398.00;;;2.30
73937;BMP180;59249;59.736;30.568;2024-02-28T01:14:18;101390.00;;;2.30
73937;BMP180;59249;59.736;30.568;2024-02-28T01:16:48;101385.00;;;2.40
73937;BMP180;59249;59.736;30.568;2024-02-28T01:19:20;101390.00;;;2.40
73937;BMP180;59249;59.736;30.568;2024-02-28T01:21:57;101390.00;;;2.40
73937;BMP180;59249;59.736;30.568;2024-02-28T01:24:34;101386.00;;;2.30
73937;BMP180;59249;59.736;30.568;2024-02-28T01:27:04;101397.00;;;2.40
73937;BMP180;59249;59.736;30.568;2024-02-28T01:29:33;101400.00;;;2.40
73937;BMP180;59249;59.736;30.568;2024-02-28T01:32:03;101394.00;;;2.40
73937;BMP180;59249;59.736;30.568;2024-02-28T01:34:34;101392.00;;;2.40
73937;BMP180;59249;59.736;30.568;2024-02-28T01:37:03;101383.00;;;2.30
73937;BMP180;59249;59.736;30.568;2024-02-28T01:39:32;101390.00;;;2.20
73937;BMP180;59249;59.736;30.568;2024-02-28T01:42:01;101385.00;;;2.30
73937;BMP180;59249;59.736;30.568;2024-02-28T01:44:36;101382.00;;;2.20
73937;BMP180;59249;59.736;30.568;2024-02-28T01:47:14;101389.00;;;2.20
73937;BMP180;59249;59.736;30.568;2024-02-28T01:49:47;101386.00;;;2.30
73937;BMP180;59249;59.736;30.568;2024-02-28T01:52:21;101385.00;;;2.30
73937;BMP180;59249;59.736;30.568;2024-02-28T01:54:53;101393.00;;;2.40
73937;BMP180;59249;59.736;30.568;2024-02-28T01:57:23;101396.00;;;2.40
73937;BMP180;59249;59.736;30.568;2024-02-28T02:00:07;101398.00;;;2.40
73937;BMP180;59249;59.736;30.568;2024-02-28T02:02:42;101383.00;;;2.30
73937;BMP180;59249;59.736;30.568;2024-02-28T02:05:13;101394.00;;;2.40
73937;BMP180;59249;59.736;30.568;2024-02-28T02:07:44;101404.00;;;2.40
73937;BMP180;59249;59.736;30.568;2024-02-28T02:10:21;101401.00;;;2.30
73937;BMP180;59249;59.736;30.568;2024-02-28T02:12:54;101400.00;;;2.30
73937;BMP180;59249;59.736;30.568;2024-02-28T02:15:24;101398.00;;;2.40
73937;BMP180;59249;59.736;30.568;2024-02-28T02:17:59;101392.00;;;2.30
73937;BMP180;59249;59.736;30.568;2024-02-28T02:20:41;101400.00;;;2.30
73937;BMP180;59249;59.736;30.568;2024-02-28T02:23:24;101402.00;;;2.30
73937;BMP180;59249;59.736;30.568;2024-02-28T02:25:54;101394.00;;;2.30
73937;BMP180;59249;59.736;30.568;2024-02-28T02:28:23;101396.00;;;2.30
73937;BMP180;59249;59.736;30.568;2024-02-28T02:30:53;101403.00;;;2.30
73937;BMP180;59249;59.736;30.568;2024-02-28T02:33:23;101405.00;;;2.30
73937;BMP180;59249;59.736;30.568;2024-02-28T02:35:54;101408.00;;;2.30
73937;BMP180;59249;59.736;30.568;2024-02-28T02:38:27;101406.00;;;2.40
73937;BMP180;59249;59.736;30.568;2024-02-28T02:41:04;101403.00;;;2.40
73937;BMP180;59249;59.736;30.568;2024-02-28T02:43:42;101399.00;;;2.40
73937;BMP180;59249;59.736;30.568;2024-02-28T02:46:14;101400.00;;;2.40
73937;BMP180;59249;59.736;30.568;2024-02-28T02:48:55;101395.00;;;2.30
73937;BMP180;59249;59.736;30.568;2024-02-28T02:51:32;101404.00;;;2.40
73937;BMP180;59249;59.736;30.568;2024-02-28T02:54:15;101390.00;;;2.30
73937;BMP180;59249;59.736;30.568;2024-02-28T02:56:46;101393.00;;;2.30
73937;BMP180;59249;59.736;30.568;2024-02-28T02:59:23;101404.00;;;2.40
73937;BMP180;59249;59.736;30.568;2024-02-28T03:02:07;101405.00;;;2.50
73937;BMP180;59249;59.736;30.568;2024-02-28T03:04:40;101404.00;;;2.50
73937;BMP180;59249;59.736;30.568;2024-02-28T03:07:14;101403.00;;;2.60
73937;BMP180;59249;59.736;30.568;2024-02-28T03:09:46;101405.00;;;2.50
73937;BMP180;59249;59.736;30.568;2024-02-28T03:12:25;101412.00;;;2.50
73937;BMP180;59249;59.736;30.568;2024-02-28T03:14:55;101415.00;;;2.50
73937;BMP180;59249;59.736;30.568;2024-02-28T03:17:25;101413.00;;;2.50
73937;BMP180;59249;59.736;30.568;2024-02-28T03:19:54;101408.00;;;2.50
73937;BMP180;59249;59.736;30.568;2024-02-28T03:22:24;101415.00;;;2.50
73937;BMP180;59249;59.736;30.568;2024-02-28T03:24:54;101406.00;;;2.50
73937;BMP180;59249;59.736;30.568;2024-02-28T03:27:23;101413.00;;;2.60
73937;BMP180;59249;59.736;30.568;2024-02-28T03:29:52;101413.00;;;2.60
73937;BMP180;59249;59.736;30.568;2024-02-28T03:32:22;101415.00;;;2.60
73937;BMP180;59249;59.736;30.568;2024-02-28T03:34:52;101417.00;;;2.60
73937;BMP180;59249;59.736;30.568;2024-02-28T03:37:21;101419.00;;;2.60
73937;BMP180;59249;59.736;30.568;2024-02-28T03:39:49;101415.00;;;2.60
73937;BMP180;59249;59.736;30.568;2024-02-28T03:42:20;101414.00;;;2.60
73937;BMP180;59249;59.736;30.568;2024-02-28T03:44:49;101421.00;;;2.60
73937;BMP180;59249;59.736;30.568;2024-02-28T03:47:18;101422.00;;;2.60
73937;BMP180;59249;59.736;30.568;2024-02-28T03:49:47;101425.00;;;2.60
73937;BMP180;59249;59.736;30.568;2024-02-28T03:52:15;101429.00;;;2.60
73937;BMP180;59249;59.736;30.568;2024-02-28T03:54:45;101428.00;;;2.60
73937;BMP180;59249;59.736;30.568;2024-02-28T03:57:15;101438.00;;;2.60
73937;BMP180;59249;59.736;30.568;2024-02-28T03:59:45;101436.00;;;2.60
73937;BMP180;59249;59.736;30.568;2024-02-28T04:02:14;101433.00;;;2.60
73937;BMP180;59249;59.736;30.568;2024-02-28T04:04:43;101439.00;;;2.70
73937;BMP180;59249;59.736;30.568;2024-02-28T04:07:12;101447.00;;;2.80
73937;BMP180;59249;59.736;30.568;2024-02-28T04:09:41;101443.00;;;2.80
73937;BMP180;59249;59.736;30.568;2024-02-28T04:12:11;101442.00;;;2.80
73937;BMP180;59249;59.736;30.568;2024-02-28T04:14:40;101443.00;;;2.80
73937;BMP180;59249;59.736;30.568;2024-02-28T04:17:20;101440.00;;;2.80
73937;BMP180;59249;59.736;30.568;2024-02-28T04:19:49;101434.00;;;2.80
73937;BMP180;59249;59.736;30.568;2024-02-28T04:22:19;101432.00;;;2.70
73937;BMP180;59249;59.736;30.568;2024-02-28T04:24:51;101443.00;;;2.70
73937;BMP180;59249;59.736;30.568;2024-02-28T04:27:21;101445.00;;;2.70
73937;BMP180;59249;59.736;30.568;2024-02-28T04:29:51;101446.00;;;2.60
73937;BMP180;59249;59.736;30.568;2024-02-28T04:32:22;101446.00;;;2.70
73937;BMP180;59249;59.736;30.568;2024-02-28T04:34:51;101444.00;;;2.70
73937;BMP180;59249;59.736;30.568;2024-02-28T04:37:21;101452.00;;;2.70
73937;BMP180;59249;59.736;30.568;2024-02-28T04:39:50;101462.00;;;2.60
73937;BMP180;59249;59.736;30.568;2024-02-28T04:42:19;101471.00;;;2.60
73937;BMP180;59249;59.736;30.568;2024-02-28T04:45:01;101467.00;;;2.60
73937;BMP180;59249;59.736;30.568;2024-02-28T04:47:51;101458.00;;;2.60
73937;BMP180;59249;59.736;30.568;2024-02-28T04:51:04;101466.00;;;2.60
73937;BMP180;59249;59.736;30.568;2024-02-28T04:53:36;101458.00;;;2.50
73937;BMP180;59249;59.736;30.568;2024-02-28T04:56:05;101467.00;;;2.50
73937;BMP180;59249;59.736;30.568;2024-02-28T04:58:35;101466.00;;;2.60
73937;BMP180;59249;59.736;30.568;2024-02-28T05:01:14;101473.00;;;2.70
73937;BMP180;59249;59.736;30.568;2024-02-28T05:03:53;101470.00;;;2.70
73937;BMP180;59249;59.736;30.568;2024-02-28T05:06:30;101471.00;;;2.60
73937;BMP180;59249;59.736;30.568;2024-02-28T05:09:05;101466.00;;;2.60
73937;BMP180;59249;59.736;30.568;2024-02-28T05:11:44;101475.00;;;2.60
73937;BMP180;59249;59.736;30.568;2024-02-28T05:14:13;101472.00;;;2.60
73937;BMP180;59249;59.736;30.568;2024-02-28T05:16:46;101471.00;;;2.60
73937;BMP180;59249;59.736;30.568;2024-02-28T05:19:19;101472.00;;;2.60
73937;BMP180;59249;59.736;30.568;2024-02-28T05:21:53;101474.00;;;2.60
73937;BMP180;59249;59.736;30.568;2024-02-28T05:24:22;101475.00;;;2.50
73937;BMP180;59249;59.736;30.568;2024-02-28T05:26:51;101481.00;;;2.50
73937;BMP180;59249;59.736;30.568;2024-02-28T05:29:20;101477.00;;;2.50
73937;BMP180;59249;59.736;30.568;2024-02-28T05:31:50;101469.00;;;2.40
73937;BMP180;59249;59.736;30.568;2024-02-28T05:34:22;101478.00;;;2.50
73937;BMP180;59249;59.736;30.568;2024-02-28T05:36:53;101479.00;;;2.50
73937;BMP180;59249;59.736;30.568;2024-02-28T05:39:22;101485.00;;;2.50
73937;BMP180;59249;59.736;30.568;2024-02-28T05:41:51;101478.00;;;2.40
73937;BMP180;59249;59.736;30.568;2024-02-28T05:44:20;101481.00;;;2.50
73937;BMP180;59249;59.736;30.568;2024-02-28T05:46:49;101486.00;;;2.50
73937;BMP180;59249;59.736;30.568;2024-02-28T05:49:18;101477.00;;;2.40
73937;BMP180;59249;59.736;30.568;2024-02-28T05:51:49;101476.00;;;2.40
73937;BMP180;59249;59.736;30.568;2024-02-28T05:54:18;101480.00;;;2.40
73937;BMP180;59249;59.736;30.568;2024-02-28T05:56:48;101483.00;;;2.40
73937;BMP180;59249;59.736;30.568;2024-02-28T05:59:17;101477.00;;;2.30
73937;BMP180;59249;59.736;30.568;2024-02-28T06:01:46;101477.00;;;2.20
73937;BMP180;59249;59.736;30.568;2024-02-28T06:04:15;101480.00;;;2.30
73937;BMP180;59249;59.736;30.568;2024-02-28T06:06:45;101471.00;;;2.30
73937;BMP180;59249;59.736;30.568;2024-02-28T06:09:17;101469.00;;;2.20
73937;BMP180;59249;59.736;30.568;2024-02-28T06:11:47;101476.00;;;2.20
73937;BMP180;59249;59.736;30.568;2024-02-28T06:14:18;101462.00;;;2.20
73937;BMP180;59249;59.736;30.568;2024-02-28T06:16:49;101459.00;;;2.10
73937;BMP180;59249;59.736;30.568;2024-02-28T06:19:18;101455.00;;;2.20
73937;BMP180;59249;59.736;30.568;2024-02-28T06:22:01;101460.00;;;2.20
73937;BMP180;59249;59.736;30.568;2024-02-28T06:24:34;101461.00;;;2.30
73937;BMP180;59249;59.736;30.568;2024-02-28T06:27:04;101459.00;;;2.30
73937;BMP180;59249;59.736;30.568;2024-02-28T06:29:39;101463.00;;;2.30
73937;BMP180;59249;59.736;30.568;2024-02-28T06:32:08;101462.00;;;2.40
73937;BMP180;59249;59.736;30.568;2024-02-28T06:34:40;101463.00;;;2.30
73937;BMP180;59249;59.736;30.568;2024-02-28T06:37:13;101462.00;;;2.40
73937;BMP180;59249;59.736;30.568;2024-02-28T06:39:46;101463.00;;;2.30
73937;BMP180;59249;59.736;30.568;2024-02-28T06:42:19;101463.00;;;2.40
73937;BMP180;59249;59.736;30.568;2024-02-28T06:44:49;101459.00;;;2.30
73937;BMP180;59249;59.736;30.568;2024-02-28T06:47:18;101476.00;;;2.40
73937;BMP180;59249;59.736;30.568;2024-02-28T06:49:47;101467.00;;;2.40
73937;BMP180;59249;59.736;30.568;2024-02-28T06:52:17;101474.00;;;2.40
73937;BMP180;59249;59.736;30.568;2024-02-28T06:54:49;101472.00;;;2.40
73937;BMP180;59249;59.736;30.568;2024-02-28T06:57:20;101466.00;;;2.40
73937;BMP180;59249;59.736;30.568;2024-02-28T06:59:49;101472.00;;;2.40
73937;BMP180;59249;59.736;30.568;2024-02-28T07:02:19;101477.00;;;2.50
73937;BMP180;59249;59.736;30.568;2024-02-28T07:04:52;101485.00;;;2.50
73937;BMP180;59249;59.736;30.568;2024-02-28T07:07:24;101478.00;;;2.50
73937;BMP180;59249;59.736;30.568;2024-02-28T07:09:57;101486.00;;;2.60
73937;BMP180;59249;59.736;30.568;2024-02-28T07:12:32;101482.00;;;2.60
73937;BMP180;59249;59.736;30.568;2024-02-28T07:15:07;101483.00;;;2.60
73937;BMP180;59249;59.736;30.568;2024-02-28T07:17:36;101486.00;;;2.70
73937;BMP180;59249;59.736;30.568;2024-02-28T07:20:09;101485.00;;;2.60
73937;BMP180;59249;59.736;30.568;2024-02-28T07:22:45;101478.00;;;2.70
73937;BMP180;59249;59.736;30.568;2024-02-28T07:25:19;101476.00;;;2.70
73937;BMP180;59249;59.736;30.568;2024-02-28T07:27:53;101478.00;;;2.60
73937;BMP180;59249;59.736;30.568;2024-02-28T07:30:23;101482.00;;;2.60
73937;BMP180;59249;59.736;30.568;2024-02-28T07:33:07;101490.00;;;2.70
73937;BMP180;59249;59.736;30.568;2024-02-28T07:35:47;101487.00;;;2.80
73937;BMP180;59249;59.736;30.568;2024-02-28T07:38:18;101484.00;;;2.80
73937;BMP180;59249;59.736;30.568;2024-02-28T07:40:53;101494.00;;;2.90
73937;BMP180;59249;59.736;30.568;2024-02-28T07:43:30;101490.00;;;2.90
73937;BMP180;59249;59.736;30.568;2024-02-28T07:46:07;101489.00;;;3.00
73937;BMP180;59249;59.736;30.568;2024-02-28T07:48:50;101495.00;;;3.10
73937;BMP180;59249;59.736;30.568;2024-02-28T07:51:50;101490.00;;;3.10
73937;BMP180;59249;59.736;30.568;2024-02-28T07:54:27;101483.00;;;3.10
73937;BMP180;59249;59.736;30.568;2024-02-28T07:57:02;101477.00;;;3.20
73937;BMP180;59249;59.736;30.568;2024-02-28T07:59:39;101484.00;;;3.30
73937;BMP180;59249;59.736;30.568;2024-02-28T08:02:13;101481.00;;;3.30
73937;BMP180;59249;59.736;30.568;2024-02-28T08:04:44;101489.00;;;3.20
73937;BMP180;59249;59.736;30.568;2024-02-28T08:07:26;101490.00;;;3.30
73937;BMP180;59249;59.736;30.568;2024-02-28T08:09:57;101478.00;;;3.30
73937;BMP180;59249;59.736;30.568;2024-02-28T08:12:31;101473.00;;;3.30
73937;BMP180;59249;59.736;30.568;2024-02-28T08:15:01;101472.00;;;3.20
73937;BMP180;59249;59.736;30.568;2024-02-28T08:17:34;101467.00;;;3.30
73937;BMP180;59249;59.736;30.568;2024-02-28T08:20:10;101468.00;;;3.40
73937;BMP180;59249;59.736;30.568;2024-02-28T08:22:54;101470.00;;;3.50
73937;BMP180;59249;59.736;30.568;2024-02-28T08:25:31;101466.00;;;3.50
73937;BMP180;59249;59.736;30.568;2024-02-28T08:28:05;101471.00;;;3.40
73937;BMP180;59249;59.736;30.568;2024-02-28T08:30:35;101474.00;;;3.50
73937;BMP180;59249;59.736;30.568;2024-02-28T08:33:11;101468.00;;;3.60
73937;BMP180;59249;59.736;30.568;2024-02-28T08:35:49;101470.00;;;3.60
73937;BMP180;59249;59.736;30.568;2024-02-28T08:38:19;101474.00;;;3.70
73937;BMP180;59249;59.736;30.568;2024-02-28T08:40:50;101473.00;;;3.60
73937;BMP180;59249;59.736;30.568;2024-02-28T08:43:28;101469.00;;;3.70
73937;BMP180;59249;59.736;30.568;2024-02-28T08:45:57;101467.00;;;3.70
73937;BMP180;59249;59.736;30.568;2024-02-28T08:48:28;101473.00;;;3.80
73937;BMP180;59249;59.736;30.568;2024-02-28T08:51:00;101467.00;;;3.80
73937;BMP180;59249;59.736;30.568;2024-02-28T08:53:31;101472.00;;;3.80
73937;BMP180;59249;59.736;30.568;2024-02-28T08:56:01;101468.00;;;3.80
73937;BMP180;59249;59.736;30.568;2024-02-28T08:58:36;101476.00;;;3.70
73937;BMP180;59249;59.736;30.568;2024-02-28T09:01:07;101472.00;;;3.80
73937;BMP180;59249;59.736;30.568;2024-02-28T09:03:36;101476.00;;;3.90
73937;BMP180;59249;59.736;30.568;2024-02-28T09:06:12;101471.00;;;3.90
73937;BMP180;59249;59.736;30.568;2024-02-28T09:09:04;101477.00;;;4.00
73937;BMP180;59249;59.736;30.568;2024-02-28T09:11:35;101478.00;;;4.00
73937;BMP180;59249;59.736;30.568;2024-02-28T09:14:06;101475.00;;;4.00
73937;BMP180;59249;59.736;30.568;2024-02-28T09:16:35;101471.00;;;4.00
73937;BMP180;59249;59.736;30.568;2024-02-28T09:19:04;101481.00;;;4.00
73937;BMP180;59249;59.736;30.568;2024-02-28T09:21:35;101474.00;;;4.10
73937;BMP180;59249;59.736;30.568;2024-02-28T09:24:06;101483.00;;;4.20
73937;BMP180;59249;59.736;30.568;2024-02-28T09:26:39;101476.00;;;4.20
73937;BMP180;59249;59.736;30.568;2024-02-28T09:29:19;101491.00;;;4.30
73937;BMP180;59249;59.736;30.568;2024-02-28T09:31:53;101487.00;;;4.20
73937;BMP180;59249;59.736;30.568;2024-02-28T09:34:24;101483.00;;;4.20
73937;BMP180;59249;59.736;30.568;2024-02-28T09:36:53;101477.00;;;4.20
73937;BMP180;59249;59.736;30.568;2024-02-28T09:39:23;101493.00;;;4.10
73937;BMP180;59249;59.736;30.568;2024-02-28T09:41:53;101479.00;;;4.20
73937;BMP180;59249;59.736;30.568;2024-02-28T09:44:36;101487.00;;;4.30
73937;BMP180;59249;59.736;30.568;2024-02-28T09:47:07;101482.00;;;4.20
73937;BMP180;59249;59.736;30.568;2024-02-28T09:49:39;101481.00;;;4.20
73937;BMP180;59249;59.736;30.568;2024-02-28T09:52:10;101492.00;;;4.40
73937;BMP180;59249;59.736;30.568;2024-02-28T09:54:40;101489.00;;;4.20
73937;BMP180;59249;59.736;30.568;2024-02-28T09:57:12;101489.00;;;4.20
73937;BMP180;59249;59.736;30.568;2024-02-28T09:59:44;101492.00;;;4.30
73937;BMP180;59249;59.736;30.568;2024-02-28T10:02:23;101486.00;;;4.30
73937;BMP180;59249;59.736;30.568;2024-02-28T10:05:00;101490.00;;;4.40
73937;BMP180;59249;59.736;30.568;2024-02-28T10:07:46;101491.00;;;4.40
73937;BMP180;59249;59.736;30.568;2024-02-28T10:10:25;101487.00;;;4.50
73937;BMP180;59249;59.736;30.568;2024-02-28T10:13:06;101487.00;;;4.60
73937;BMP180;59249;59.736;30.568;2024-02-28T10:15:47;101488.00;;;4.50
73937;BMP180;59249;59.736;30.568;2024-02-28T10:18:28;101497.00;;;4.60
73937;BMP180;59249;59.736;30.568;2024-02-28T10:21:09;101494.00;;;4.50
73937;BMP180;59249;59.736;30.568;2024-02-28T10:23:49;101492.00;;;4.40
73937;BMP180;59249;59.736;30.568;2024-02-28T10:26:19;101491.00;;;4.30
73937;BMP180;59249;59.736;30.568;2024-02-28T10:28:50;101496.00;;;4.50
73937;BMP180;59249;59.736;30.568;2024-02-28T10:31:25;101497.00;;;4.50
73937;BMP180;59249;59.736;30.568;2024-02-28T10:33:56;101492.00;;;4.60
73937;BMP180;59249;59.736;30.568;2024-02-28T10:36:26;101488.00;;;4.50
73937;BMP180;59249;59.736;30.568;2024-02-28T10:39:00;101493.00;;;4.50
73937;BMP180;59249;59.736;30.568;2024-02-28T10:41:31;101484.00;;;4.60
73937;BMP180;59249;59.736;30.568;2024-02-28T10:44:03;101489.00;;;4.60
73937;BMP180;59249;59.736;30.568;2024-02-28T10:46:35;101492.00;;;4.60
73937;BMP180;59249;59.736;30.568;2024-02-28T10:49:06;101494.00;;;4.50
73937;BMP180;59249;59.736;30.568;2024-02-28T10:51:40;101496.00;;;4.60
73937;BMP180;59249;59.736;30.568;2024-02-28T10:54:15;101498.00;;;4.70
73937;BMP180;59249;59.736;30.568;2024-02-28T10:57:01;101498.00;;;4.60
73937;BMP180;59249;59.736;30.568;2024-02-28T10:59:32;101499.00;;;4.70
73937;BMP180;59249;59.736;30.568;2024-02-28T11:02:04;101492.00;;;4.60
73937;BMP180;59249;59.736;30.568;2024-02-28T11:04:51;101501.00;;;4.70
73937;BMP180;59249;59.736;30.568;2024-02-28T11:07:45;101500.00;;;4.70
73937;BMP180;59249;59.736;30.568;2024-02-28T11:10:15;101498.00;;;4.60
73937;BMP180;59249;59.736;30.568;2024-02-28T11:12:54;101494.00;;;4.70
73937;BMP180;59249;59.736;30.568;2024-02-28T11:15:26;101490.00;;;4.70
73937;BMP180;59249;59.736;30.568;2024-02-28T11:18:08;101482.00;;;4.80
73937;BMP180;59249;59.736;30.568;2024-02-28T11:20:40;101482.00;;;4.80
73937;BMP180;59249;59.736;30.568;2024-02-28T11:23:10;101482.00;;;4.80
73937;BMP180;59249;59.736;30.568;2024-02-28T11:25:41;101473.00;;;4.70
73937;BMP180;59249;59.736;30.568;2024-02-28T11:28:14;101471.00;;;4.80
73937;BMP180;59249;59.736;30.568;2024-02-28T11:30:44;101463.00;;;4.80
73937;BMP180;59249;59.736;30.568;2024-02-28T11:33:20;101472.00;;;4.80
73937;BMP180;59249;59.736;30.568;2024-02-28T11:35:57;101475.00;;;4.70
73937;BMP180;59249;59.736;30.568;2024-02-28T11:38:34;101473.00;;;4.70
73937;BMP180;59249;59.736;30.568;2024-02-28T11:41:09;101476.00;;;4.70
73937;BMP180;59249;59.736;30.568;2024-02-28T11:43:38;101481.00;;;4.70
73937;BMP180;59249;59.736;30.568;2024-02-28T11:46:19;101476.00;;;4.70
73937;BMP180;59249;59.736;30.568;2024-02-28T11:48:52;101473.00;;;4.80
73937;BMP180;59249;59.736;30.568;2024-02-28T11:51:23;101473.00;;;4.80
73937;BMP180;59249;59.736;30.568;2024-02-28T11:54:03;101479.00;;;4.70
73937;BMP180;59249;59.736;30.568;2024-02-28T11:56:33;101477.00;;;4.70
73937;BMP180;59249;59.736;30.568;2024-02-28T11:59:04;101474.00;;;4.70
73937;BMP180;59249;59.736;30.568;2024-02-28T12:01:38;101466.00;;;4.70
73937;BMP180;59249;59.736;30.568;2024-02-28T12:04:16;101464.00;;;4.70
73937;BMP180;59249;59.736;30.568;2024-02-28T12:06:48;101465.00;;;4.50
73937;BMP180;59249;59.736;30.568;2024-02-28T12:09:23;101465.00;;;4.60
73937;BMP180;59249;59.736;30.568;2024-02-28T12:12:11;101463.00;;;4.60
73937;BMP180;59249;59.736;30.568;2024-02-28T12:14:43;101464.00;;;4.60
73937;BMP180;59249;59.736;30.568;2024-02-28T12:17:16;101462.00;;;4.60
73937;BMP180;59249;59.736;30.568;2024-02-28T12:19:49;101468.00;;;4.70
73937;BMP180;59249;59.736;30.568;2024-02-28T12:22:22;101457.00;;;4.50
73937;BMP180;59249;59.736;30.568;2024-02-28T12:24:51;101454.00;;;4.50
73937;BMP180;59249;59.736;30.568;2024-02-28T12:27:23;101458.00;;;4.50
73937;BMP180;59249;59.736;30.568;2024-02-28T12:29:53;101457.00;;;4.50
73937;BMP180;59249;59.736;30.568;2024-02-28T12:32:24;101450.00;;;4.50
73937;BMP180;59249;59.736;30.568;2024-02-28T12:35:04;101455.00;;;4.40
73937;BMP180;59249;59.736;30.568;2024-02-28T12:37:34;101449.00;;;4.40
73937;BMP180;59249;59.736;30.568;2024-02-28T12:40:07;101457.00;;;4.30
73937;BMP180;59249;59.736;30.568;2024-02-28T12:42:40;101446.00;;;4.40
73937;BMP180;59249;59.736;30.568;2024-02-28T12:45:19;101448.00;;;4.40
73937;BMP180;59249;59.736;30.568;2024-02-28T12:47:52;101451.00;;;4.30
73937;BMP180;59249;59.736;30.568;2024-02-28T12:50:26;101455.00;;;4.20
73937;BMP180;59249;59.736;30.568;2024-02-28T12:53:02;101453.00;;;4.20
73937;BMP180;59249;59.736;30.568;2024-02-28T12:55:35;101447.00;;;4.20
73937;BMP180;59249;59.736;30.568;2024-02-28T12:58:05;101439.00;;;4.20
73937;BMP180;59249;59.736;30.568;2024-02-28T13:00:36;101435.00;;;4.00
73937;BMP180;59249;59.736;30.568;2024-02-28T13:03:09;101445.00;;;4.10
73937;BMP180;59249;59.736;30.568;2024-02-28T13:05:47;101441.00;;;3.90
73937;BMP180;59249;59.736;30.568;2024-02-28T13:08:22;101448.00;;;4.00
73937;BMP180;59249;59.736;30.568;2024-02-28T13:10:51;101445.00;;;4.10
73937;BMP180;59249;59.736;30.568;2024-02-28T13:13:30;101451.00;;;4.00
73937;BMP180;59249;59.736;30.568;2024-02-28T13:16:01;101448.00;;;4.00
73937;BMP180;59249;59.736;30.568;2024-02-28T13:18:32;101449.00;;;3.90
73937;BMP180;59249;59.736;30.568;2024-02-28T13:21:05;101446.00;;;4.00
73937;BMP180;59249;59.736;30.568;2024-02-28T13:23:35;101458.00;;;4.00
73937;BMP180;59249;59.736;30.568;2024-02-28T13:26:05;101462.00;;;4.00
73937;BMP180;59249;59.736;30.568;2024-02-28T13:28:36;101455.00;;;4.00
73937;BMP180;59249;59.736;30.568;2024-02-28T13:31:26;101458.00;;;4.00
73937;BMP180;59249;59.736;30.568;2024-02-28T13:33:58;101452.00;;;4.00
73937;BMP180;59249;59.736;30.568;2024-02-28T13:36:35;101449.00;;;4.00
73937;BMP180;59249;59.736;30.568;2024-02-28T13:39:10;101445.00;;;4.00
73937;BMP180;59249;59.736;30.568;2024-02-28T13:41:40;101442.00;;;3.90
73937;BMP180;59249;59.736;30.568;2024-02-28T13:44:13;101433.00;;;4.00
73937;BMP180;59249;59.736;30.568;2024-02-28T13:46:42;101428.00;;;4.00
73937;BMP180;59249;59.736;30.568;2024-02-28T13:49:19;101429.00;;;4.00
73937;BMP180;59249;59.736;30.568;2024-02-28T13:51:55;101434.00;;;4.00
73937;BMP180;59249;59.736;30.568;2024-02-28T13:54:39;101425.00;;;3.90
73937;BMP180;59249;59.736;30.568;2024-02-28T13:57:09;101423.00;;;3.90
73937;BMP180;59249;59.736;30.568;2024-02-28T13:59:39;101425.00;;;3.90
73937;BMP180;59249;59.736;30.568;2024-02-28T14:02:09;101426.00;;;3.80
73937;BMP180;59249;59.736;30.568;2024-02-28T14:04:41;101425.00;;;3.70
73937;BMP180;59249;59.736;30.568;2024-02-28T14:07:17;101427.00;;;3.80
73937;BMP180;59249;59.736;30.568;2024-02-28T14:10:04;101423.00;;;3.80
73937;BMP180;59249;59.736;30.568;2024-02-28T14:12:45;101418.00;;;3.80
73937;BMP180;59249;59.736;30.568;2024-02-28T14:15:16;101392.00;;;3.80
73937;BMP180;59249;59.736;30.568;2024-02-28T14:17:48;101403.00;;;3.80
73937;BMP180;59249;59.736;30.568;2024-02-28T14:20:21;101397.00;;;3.70
73937;BMP180;59249;59.736;30.568;2024-02-28T14:22:55;101392.00;;;3.70
73937;BMP180;59249;59.736;30.568;2024-02-28T14:25:26;101392.00;;;3.60
73937;BMP180;59249;59.736;30.568;2024-02-28T14:27:58;101383.00;;;3.60
73937;BMP180;59249;59.736;30.568;2024-02-28T14:30:29;101387.00;;;3.50
73937;BMP180;59249;59.736;30.568;2024-02-28T14:33:02;101388.00;;;3.60